Current | Forecast
Updated: 7:50 PM CEST on April 28, 2017
Observed at Mo I Rana, Sweden
Temperature 5°C
Windchill 1°C
Humidity 36%
Dew Point -9°C
Wind ENE at 20 km/h
Pressure 1027 hPa (Steady)
Conditions Clear
Visibility -
UV N/A
Clouds
Yesterday's Maximum 7°C
Yesterday's Minimum -6°C approx.
Yesterday's Heating Degree Days 32 approx.
Sunrise4:24 AM CEST
Sunset9:23 PM CEST
Moon Rise5:59 AM CEST
Moon Set
Moon PhaseMoon Phase
Waxing Crescent
Raw METARMETAR ENRA 281750Z 07011KT CAVOK 05/M09 Q1027


Monday
. High: 30° F.
Tuesday
. High: 30° F.
Wednesday
. High: 34° F.
Thursday
. High: 35° F.
Friday
. High: 35° F.
Saturday
. High: 35° F.
Sunday
. High: 30° F.
Monday
. High: 30° F.

Units: English | Metric

Find the Weather for any City, State or Zipcode, or Country:

U.S. State List | Severe Weather | Tropical Storms | Ski Conditions
United States | Canada | Central America | South America | Asia | Europe | Australia | Africa | Islands

Weather Underground

© Copyright 2017
The Weather Company, LLC